Time;durP1;ratioP1;P1;durP2;ratioP2;P2;SDS_P1;SDS_P2;PMS_P1;PMS_P2;Temp;Humidity;BMP_temperature;BMP_pressure;BME280_temperature;BME280_humidity;BME280_pressure;Samples;Min_cycle;Max_cycle;Signal;HPM_P1;HPM_P2
2023/11/29 00:01:33;;;;;;;11.63;10.53;;;;;;;;;;4958165;29;20246;-85
2023/11/29 00:04:01;;;;;;;12.83;11.63;;;;;;;;;;4957331;28;20217;-83
2023/11/29 00:06:27;;;;;;;11.93;10.93;;;;;;;;;;4953378;28;20214;-84
2023/11/29 00:08:56;;;;;;;14.27;12.83;;;;;;;;;;4977225;28;20750;-82
2023/11/29 00:11:26;;;;;;;13.23;11.80;;;;;;;;;;4933522;28;20225;-84
2023/11/29 00:13:54;;;;;;;11.83;10.70;;;;;;;;;;4958123;28;20353;-85
2023/11/29 00:16:20;;;;;;;12.00;10.80;;;;;;;;;;4943751;28;20218;-86
2023/11/29 00:18:48;;;;;;;13.07;11.77;;;;;;;;;;4935758;28;20240;-84
2023/11/29 00:21:16;;;;;;;13.10;11.97;;;;;;;;;;4959720;28;20254;-85
2023/11/29 00:23:44;;;;;;;12.33;11.23;;;;;;;;;;4969299;28;20234;-83
2023/11/29 00:26:09;;;;;;;13.20;11.47;;;;;;;;;;4951470;28;20221;-84
2023/11/29 00:28:37;;;;;;;13.87;12.60;;;;;;;;;;4941716;28;20238;-83
2023/11/29 00:31:05;;;;;;;15.67;12.20;;;;;;;;;;4938253;28;20695;-84
2023/11/29 00:33:37;;;;;;;13.57;12.20;;;;;;;;;;4955603;29;20229;-84
2023/11/29 00:36:03;;;;;;;13.90;12.57;;;;;;;;;;4950682;28;20222;-84
2023/11/29 00:38:28;;;;;;;14.47;12.90;;;;;;;;;;4947165;28;20252;-85
2023/11/29 00:40:57;;;;;;;12.13;10.83;;;;;;;;;;4930888;28;20227;-83
2023/11/29 00:43:22;;;;;;;14.03;12.63;;;;;;;;;;4936757;28;20217;-86
2023/11/29 00:45:52;;;;;;;17.37;14.03;;;;;;;;;;4925457;28;20306;-84
2023/11/29 00:48:20;;;;;;;15.13;13.73;;;;;;;;;;4938005;28;20219;-84
2023/11/29 00:50:46;;;;;;;16.53;13.00;;;;;;;;;;4950737;28;20278;-85
2023/11/29 00:53:11;;;;;;;14.33;12.83;;;;;;;;;;4921954;28;20684;-85
2023/11/29 00:55:39;;;;;;;14.40;13.00;;;;;;;;;;4941821;28;20305;-83
2023/11/29 00:58:08;;;;;;;14.53;13.10;;;;;;;;;;4940888;28;20719;-84
2023/11/29 01:00:34;;;;;;;16.17;14.77;;;;;;;;;;4942667;28;20669;-81
2023/11/29 01:02:59;;;;;;;13.87;12.57;;;;;;;;;;4952384;28;20289;-84
2023/11/29 01:05:25;;;;;;;15.10;13.70;;;;;;;;;;4942386;28;20226;-86
2023/11/29 01:07:55;;;;;;;16.83;15.03;;;;;;;;;;4926582;28;20280;-84
2023/11/29 01:10:23;;;;;;;15.00;13.70;;;;;;;;;;4938456;28;20306;-84
2023/11/29 01:12:49;;;;;;;15.53;13.93;;;;;;;;;;4937713;28;20269;-83
2023/11/29 01:15:18;;;;;;;16.07;14.57;;;;;;;;;;4940741;28;20276;-84
2023/11/29 01:17:44;;;;;;;15.00;13.47;;;;;;;;;;4948354;28;20233;-84
2023/11/29 01:20:09;;;;;;;15.20;13.77;;;;;;;;;;4962264;28;20222;-85
2023/11/29 01:22:35;;;;;;;17.50;15.83;;;;;;;;;;4924909;28;20218;-83
2023/11/29 01:25:03;;;;;;;15.30;14.00;;;;;;;;;;4957148;28;20230;-84
2023/11/29 01:27:30;;;;;;;16.50;14.93;;;;;;;;;;4937953;29;20226;-84
2023/11/29 01:29:57;;;;;;;14.43;13.23;;;;;;;;;;4940022;28;20305;-83
2023/11/29 01:32:26;;;;;;;15.83;14.43;;;;;;;;;;4940346;28;20305;-85
2023/11/29 01:34:54;;;;;;;15.60;14.20;;;;;;;;;;4942131;28;20317;-85
2023/11/29 01:37:20;;;;;;;16.87;15.37;;;;;;;;;;4941030;28;20226;-84
2023/11/29 01:39:47;;;;;;;17.90;15.00;;;;;;;;;;4949393;28;20223;-83
2023/11/29 01:42:18;;;;;;;15.70;14.10;;;;;;;;;;4949860;28;20599;-86
2023/11/29 01:44:46;;;;;;;19.53;15.13;;;;;;;;;;4935751;29;20242;-84
2023/11/29 01:47:14;;;;;;;15.73;14.30;;;;;;;;;;4958542;28;20288;-83
2023/11/29 01:49:39;;;;;;;15.40;14.03;;;;;;;;;;4941398;28;20230;-85
2023/11/29 01:52:11;;;;;;;17.47;15.80;;;;;;;;;;4941248;28;20218;-85
2023/11/29 01:54:40;;;;;;;16.23;14.77;;;;;;;;;;4950986;29;20269;-84
2023/11/29 01:57:08;;;;;;;15.60;14.23;;;;;;;;;;4950287;28;20214;-83
2023/11/29 01:59:37;;;;;;;16.70;15.20;;;;;;;;;;4924693;28;20283;-84
2023/11/29 02:02:07;;;;;;;16.00;14.50;;;;;;;;;;4948446;28;20312;-85
2023/11/29 02:04:32;;;;;;;15.47;14.00;;;;;;;;;;4924906;28;20237;-87
2023/11/29 02:06:58;;;;;;;16.80;15.20;;;;;;;;;;4929065;28;20228;-84
2023/11/29 02:09:26;;;;;;;13.47;12.17;;;;;;;;;;4965015;28;20222;-87
2023/11/29 02:11:54;;;;;;;16.47;14.77;;;;;;;;;;4946897;28;20230;-84
2023/11/29 02:14:25;;;;;;;15.57;14.17;;;;;;;;;;4941400;28;20280;-87
2023/11/29 02:16:53;;;;;;;16.03;14.53;;;;;;;;;;4935761;28;20222;-84
2023/11/29 02:19:30;;;;;;;12.97;11.60;;;;;;;;;;4957682;28;20218;-86
2023/11/29 02:22:01;;;;;;;15.40;13.90;;;;;;;;;;4955998;28;20256;-85
2023/11/29 02:24:32;;;;;;;14.77;13.37;;;;;;;;;;4958335;28;20230;-84
2023/11/29 02:26:58;;;;;;;15.37;14.00;;;;;;;;;;4955381;28;20229;-84
2023/11/29 02:29:29;;;;;;;12.90;11.70;;;;;;;;;;4934712;28;20215;-86
2023/11/29 02:31:57;;;;;;;14.27;13.00;;;;;;;;;;4935785;28;20234;-84
2023/11/29 02:34:24;;;;;;;13.87;12.60;;;;;;;;;;4938908;28;20260;-85
2023/11/29 02:36:52;;;;;;;14.03;12.83;;;;;;;;;;4955638;28;20236;-83
2023/11/29 02:39:20;;;;;;;13.30;12.10;;;;;;;;;;4934548;28;20722;-85
2023/11/29 02:41:46;;;;;;;13.17;12.00;;;;;;;;;;4932878;28;20234;-83
2023/11/29 02:44:13;;;;;;;13.67;12.47;;;;;;;;;;4939645;28;20217;-85
2023/11/29 02:46:42;;;;;;;15.97;14.57;;;;;;;;;;4936924;28;20230;-86
2023/11/29 02:49:12;;;;;;;12.60;11.50;;;;;;;;;;4951332;28;20218;-84
2023/11/29 02:51:41;;;;;;;13.40;12.30;;;;;;;;;;4957095;28;20803;-82
2023/11/29 02:54:06;;;;;;;16.70;13.77;;;;;;;;;;4936533;28;20238;-85
2023/11/29 02:56:34;;;;;;;14.90;13.47;;;;;;;;;;4934559;28;20225;-84
2023/11/29 02:58:59;;;;;;;13.60;12.47;;;;;;;;;;4940780;28;20239;-84
2023/11/29 03:01:25;;;;;;;14.63;13.43;;;;;;;;;;4961660;28;20267;-82
2023/11/29 03:03:50;;;;;;;13.83;12.53;;;;;;;;;;4934276;28;20226;-82
2023/11/29 03:06:16;;;;;;;13.83;12.53;;;;;;;;;;4938449;28;20218;-83
2023/11/29 03:08:41;;;;;;;15.27;13.87;;;;;;;;;;4948956;29;20218;-82
2023/11/29 03:11:10;;;;;;;15.30;14.00;;;;;;;;;;4961004;28;20234;-86
2023/11/29 03:13:35;;;;;;;13.67;12.27;;;;;;;;;;4939573;28;20243;-84
2023/11/29 03:16:03;;;;;;;14.17;12.87;;;;;;;;;;4955174;28;20753;-88
2023/11/29 03:18:30;;;;;;;14.80;13.50;;;;;;;;;;4922953;29;20687;-87
2023/11/29 03:20:55;;;;;;;15.07;13.77;;;;;;;;;;4960145;28;20302;-82
2023/11/29 03:23:21;;;;;;;16.03;14.53;;;;;;;;;;4936836;28;20211;-85
2023/11/29 03:25:46;;;;;;;15.57;14.07;;;;;;;;;;4937468;28;20999;-84
2023/11/29 03:28:12;;;;;;;14.40;13.10;;;;;;;;;;4932845;28;20226;-86
2023/11/29 03:30:38;;;;;;;15.17;13.77;;;;;;;;;;4935341;28;20242;-85
2023/11/29 03:33:03;;;;;;;13.33;12.23;;;;;;;;;;4947661;28;20232;-86
2023/11/29 03:35:31;;;;;;;15.47;14.07;;;;;;;;;;4949183;28;20226;-83
2023/11/29 03:37:56;;;;;;;16.63;15.23;;;;;;;;;;4923555;28;20701;-82
2023/11/29 03:40:24;;;;;;;17.43;15.83;;;;;;;;;;4937354;28;20214;-85
2023/11/29 03:42:52;;;;;;;16.43;15.03;;;;;;;;;;4949984;28;20215;-85
2023/11/29 03:45:20;;;;;;;17.53;15.83;;;;;;;;;;4963942;28;20601;-82
2023/11/29 03:47:46;;;;;;;16.60;15.10;;;;;;;;;;4956594;28;20223;-83
2023/11/29 03:50:16;;;;;;;15.87;14.27;;;;;;;;;;4951396;28;20233;-83
2023/11/29 03:52:44;;;;;;;15.33;14.03;;;;;;;;;;4934780;28;20231;-84
2023/11/29 03:55:12;;;;;;;14.20;13.07;;;;;;;;;;4965094;28;20227;-83
2023/11/29 03:57:37;;;;;;;15.00;13.70;;;;;;;;;;4936895;28;20253;-83
2023/11/29 04:03:52;;;;;;;14.97;13.53;;;;;;;;;;4967481;28;20294;-82
2023/11/29 04:06:29;;;;;;;15.87;14.57;;;;;;;;;;4937881;28;20458;-84
2023/11/29 04:08:55;;;;;;;15.90;14.37;;;;;;;;;;4921494;28;20372;-84
2023/11/29 04:11:27;;;;;;;14.97;13.57;;;;;;;;;;4935851;28;20898;-84
2023/11/29 04:13:57;;;;;;;14.03;12.83;;;;;;;;;;4938847;28;20267;-84
2023/11/29 04:16:24;;;;;;;15.73;14.27;;;;;;;;;;4969326;28;20246;-84
2023/11/29 04:18:51;;;;;;;15.63;14.23;;;;;;;;;;4961374;28;20234;-84
2023/11/29 04:21:28;;;;;;;15.83;14.43;;;;;;;;;;4938362;28;20234;-84
2023/11/29 04:23:56;;;;;;;17.07;15.47;;;;;;;;;;4931824;28;20656;-84
2023/11/29 04:26:37;;;;;;;14.13;12.93;;;;;;;;;;4929847;28;20337;-83
2023/11/29 04:29:04;;;;;;;16.47;15.07;;;;;;;;;;4949409;28;20260;-83
2023/11/29 04:31:30;;;;;;;16.10;14.50;;;;;;;;;;4941324;28;20637;-85
2023/11/29 04:33:56;;;;;;;16.47;14.97;;;;;;;;;;4934634;28;20227;-83
2023/11/29 04:36:24;;;;;;;16.20;14.80;;;;;;;;;;4950588;28;20623;-82
2023/11/29 04:38:49;;;;;;;18.00;16.33;;;;;;;;;;4937577;28;20281;-82
2023/11/29 04:41:17;;;;;;;15.60;14.30;;;;;;;;;;4957964;28;20239;-81
2023/11/29 04:43:47;;;;;;;17.03;15.37;;;;;;;;;;4946473;28;20594;-84
2023/11/29 04:46:26;;;;;;;16.07;14.70;;;;;;;;;;4935826;28;20274;-87
2023/11/29 04:48:53;;;;;;;16.50;14.97;;;;;;;;;;4971522;28;20234;-78
2023/11/29 04:51:19;;;;;;;16.27;14.97;;;;;;;;;;4980353;28;20235;-78
2023/11/29 04:53:44;;;;;;;17.63;16.13;;;;;;;;;;4954188;28;20222;-78
2023/11/29 04:56:10;;;;;;;15.27;13.97;;;;;;;;;;4956351;28;20240;-77
2023/11/29 04:58:39;;;;;;;17.70;16.17;;;;;;;;;;4931357;28;20218;-79
2023/11/29 05:01:10;;;;;;;17.03;15.53;;;;;;;;;;4953789;28;20258;-77
2023/11/29 05:03:39;;;;;;;16.33;14.93;;;;;;;;;;4958210;28;20236;-75
2023/11/29 05:06:05;;;;;;;16.77;15.37;;;;;;;;;;4950879;28;20254;-79
2023/11/29 05:08:32;;;;;;;17.33;15.73;;;;;;;;;;4940398;28;20265;-79
2023/11/29 05:10:59;;;;;;;17.00;15.60;;;;;;;;;;4959986;28;21258;-78
2023/11/29 05:13:27;;;;;;;17.10;15.53;;;;;;;;;;4960093;28;20264;-82
2023/11/29 05:15:53;;;;;;;18.60;16.70;;;;;;;;;;4968960;28;20860;-80
2023/11/29 05:18:19;;;;;;;17.47;15.87;;;;;;;;;;4965229;28;20215;-79
2023/11/29 05:20:44;;;;;;;17.67;16.07;;;;;;;;;;4965417;28;20228;-79
2023/11/29 05:23:13;;;;;;;18.13;16.50;;;;;;;;;;4955478;28;20225;-80
2023/11/29 05:25:38;;;;;;;17.97;16.27;;;;;;;;;;4961609;28;20290;-78
2023/11/29 05:28:05;;;;;;;17.23;15.73;;;;;;;;;;4963159;28;20459;-79
2023/11/29 05:30:34;;;;;;;17.37;15.77;;;;;;;;;;4967775;28;20231;-79
2023/11/29 05:32:59;;;;;;;16.00;14.63;;;;;;;;;;4946294;28;20376;-79
2023/11/29 05:35:26;;;;;;;15.43;14.13;;;;;;;;;;4945928;28;20274;-81
2023/11/29 05:37:54;;;;;;;14.40;13.17;;;;;;;;;;4932794;28;20231;-80
2023/11/29 05:40:20;;;;;;;17.33;15.67;;;;;;;;;;4961405;28;20245;-79
2023/11/29 05:42:46;;;;;;;15.30;14.00;;;;;;;;;;4950833;28;20234;-80
2023/11/29 05:45:16;;;;;;;14.63;13.37;;;;;;;;;;4962040;28;20293;-78
2023/11/29 05:47:41;;;;;;;15.17;13.87;;;;;;;;;;4946748;28;20265;-79
2023/11/29 05:50:09;;;;;;;14.63;13.23;;;;;;;;;;4942847;28;20222;-79
2023/11/29 05:52:35;;;;;;;15.70;14.40;;;;;;;;;;4960287;28;20284;-80
2023/11/29 05:55:01;;;;;;;15.87;14.47;;;;;;;;;;4943231;28;20715;-82
2023/11/29 05:57:27;;;;;;;15.80;14.37;;;;;;;;;;4944134;28;20214;-78
2023/11/29 05:59:55;;;;;;;15.57;14.07;;;;;;;;;;4970652;28;20219;-79
2023/11/29 06:02:21;;;;;;;16.43;15.03;;;;;;;;;;4952851;28;20289;-81
2023/11/29 06:04:46;;;;;;;15.27;14.00;;;;;;;;;;4969221;28;20233;-79
2023/11/29 06:07:12;;;;;;;15.90;14.50;;;;;;;;;;4949734;28;20222;-79
2023/11/29 06:09:42;;;;;;;14.63;13.37;;;;;;;;;;4967109;28;20662;-78
2023/11/29 06:12:08;;;;;;;14.37;13.07;;;;;;;;;;4964071;28;20241;-79
2023/11/29 06:14:34;;;;;;;14.67;13.33;;;;;;;;;;4932273;28;20227;-81
2023/11/29 06:16:59;;;;;;;13.73;12.63;;;;;;;;;;4959117;28;20231;-80
2023/11/29 06:19:28;;;;;;;13.27;12.07;;;;;;;;;;4942459;28;20214;-80
2023/11/29 06:21:56;;;;;;;13.20;12.20;;;;;;;;;;4945544;28;20243;-79
2023/11/29 06:24:22;;;;;;;13.20;12.03;;;;;;;;;;4977158;28;20222;-80
2023/11/29 06:26:50;;;;;;;14.07;12.80;;;;;;;;;;4929251;28;20227;-80
2023/11/29 06:31:40;;;;;;;12.73;11.37;;;;;;;;;;5007629;27;2073091;-74
2023/11/29 06:34:07;;;;;;;12.73;11.63;;;;;;;;;;5022863;28;20229;-76
2023/11/29 06:36:35;;;;;;;12.43;11.40;;;;;;;;;;5012896;28;20227;-75
2023/11/29 06:39:01;;;;;;;13.33;12.17;;;;;;;;;;5022658;28;20230;-75
2023/11/29 06:41:26;;;;;;;12.87;11.87;;;;;;;;;;5042327;28;20215;-74
2023/11/29 06:43:53;;;;;;;13.20;12.20;;;;;;;;;;5009043;28;20219;-75
2023/11/29 06:46:24;;;;;;;12.60;11.60;;;;;;;;;;5016773;28;20307;-76
2023/11/29 06:48:52;;;;;;;11.87;10.87;;;;;;;;;;5023384;28;20211;-76
2023/11/29 06:51:18;;;;;;;13.00;11.90;;;;;;;;;;5046718;28;20219;-76
2023/11/29 06:53:47;;;;;;;12.87;11.77;;;;;;;;;;5024150;28;20481;-77
2023/11/29 06:56:13;;;;;;;13.17;12.07;;;;;;;;;;5030881;28;20681;-74
2023/11/29 06:58:39;;;;;;;13.10;11.93;;;;;;;;;;5029628;28;20230;-75
2023/11/29 07:01:07;;;;;;;11.13;10.17;;;;;;;;;;5013669;28;20299;-75
2023/11/29 07:03:32;;;;;;;13.67;12.50;;;;;;;;;;5027722;28;20234;-75
2023/11/29 07:05:58;;;;;;;12.77;11.67;;;;;;;;;;5026622;28;20579;-75
2023/11/29 07:08:24;;;;;;;13.70;12.60;;;;;;;;;;5028917;28;20294;-75
2023/11/29 07:10:49;;;;;;;13.33;12.23;;;;;;;;;;5008428;28;20253;-75
2023/11/29 07:13:17;;;;;;;13.97;12.77;;;;;;;;;;5007638;28;20253;-74
2023/11/29 07:15:43;;;;;;;13.70;12.60;;;;;;;;;;5028882;28;20211;-75
2023/11/29 07:18:08;;;;;;;13.30;12.20;;;;;;;;;;5028909;28;20687;-75
2023/11/29 07:20:34;;;;;;;14.57;13.17;;;;;;;;;;5027578;28;20235;-75
2023/11/29 07:23:00;;;;;;;14.03;12.83;;;;;;;;;;5014253;28;20215;-76
2023/11/29 07:25:27;;;;;;;15.83;14.43;;;;;;;;;;5029647;28;20270;-76
2023/11/29 07:27:55;;;;;;;14.50;13.27;;;;;;;;;;5009533;28;20284;-76
2023/11/29 07:30:21;;;;;;;14.90;13.70;;;;;;;;;;5028346;28;20208;-75
2023/11/29 07:32:47;;;;;;;15.03;13.80;;;;;;;;;;5010422;28;20285;-75
2023/11/29 07:35:13;;;;;;;21.43;19.63;;;;;;;;;;5014404;28;21214;-75
2023/11/29 07:37:41;;;;;;;16.30;14.80;;;;;;;;;;5016450;28;20213;-75
2023/11/29 07:40:12;;;;;;;15.37;14.07;;;;;;;;;;5027544;28;20207;-76
2023/11/29 07:42:43;;;;;;;16.23;14.67;;;;;;;;;;5031292;28;20266;-75
2023/11/29 07:45:09;;;;;;;17.70;16.10;;;;;;;;;;5005816;28;20219;-76
2023/11/29 07:47:37;;;;;;;17.20;15.80;;;;;;;;;;5017618;28;20227;-76
2023/11/29 07:50:08;;;;;;;18.40;16.73;;;;;;;;;;5009150;28;20216;-76
2023/11/29 07:52:35;;;;;;;18.87;17.20;;;;;;;;;;5018217;28;20248;-76
2023/11/29 07:55:05;;;;;;;17.87;16.27;;;;;;;;;;5017792;28;20215;-76
2023/11/29 07:57:31;;;;;;;18.03;16.43;;;;;;;;;;5019194;28;20235;-75
2023/11/29 07:59:56;;;;;;;18.73;17.20;;;;;;;;;;5046584;28;20219;-76
2023/11/29 08:02:22;;;;;;;17.87;16.40;;;;;;;;;;5019443;28;20235;-77
2023/11/29 08:04:47;;;;;;;18.47;16.77;;;;;;;;;;5010775;28;20315;-76
2023/11/29 08:07:13;;;;;;;18.97;17.37;;;;;;;;;;5016376;28;20223;-76
2023/11/29 08:09:39;;;;;;;19.77;18.07;;;;;;;;;;5028484;28;20224;-76
2023/11/29 08:12:07;;;;;;;20.53;18.73;;;;;;;;;;4997177;28;20216;-75
2023/11/29 08:14:35;;;;;;;20.73;18.73;;;;;;;;;;4998072;28;20214;-75
2023/11/29 08:17:03;;;;;;;20.23;18.53;;;;;;;;;;4995117;28;20204;-75
2023/11/29 08:19:31;;;;;;;20.57;18.70;;;;;;;;;;5013650;28;20243;-76
2023/11/29 08:22:03;;;;;;;20.67;18.97;;;;;;;;;;5001206;28;20219;-76
2023/11/29 08:24:29;;;;;;;20.57;18.60;;;;;;;;;;5032440;28;20226;-75
2023/11/29 08:26:55;;;;;;;21.23;19.27;;;;;;;;;;5003867;28;20211;-76
2023/11/29 08:29:26;;;;;;;20.57;18.87;;;;;;;;;;5007691;28;20208;-75
2023/11/29 08:31:53;;;;;;;21.63;19.73;;;;;;;;;;5017298;28;20223;-75
2023/11/29 08:34:24;;;;;;;22.97;21.07;;;;;;;;;;5016734;28;20208;-75
2023/11/29 08:36:52;;;;;;;22.43;20.50;;;;;;;;;;5016106;28;20302;-75
2023/11/29 08:39:17;;;;;;;21.63;19.77;;;;;;;;;;4993274;28;20200;-74
2023/11/29 08:41:43;;;;;;;21.40;19.60;;;;;;;;;;5014139;28;20220;-76
2023/11/29 08:44:13;;;;;;;21.20;19.40;;;;;;;;;;5010234;28;20708;-74
2023/11/29 08:46:41;;;;;;;20.90;19.00;;;;;;;;;;4992395;28;20219;-75
2023/11/29 08:49:08;;;;;;;28.33;25.63;;;;;;;;;;5009012;28;20227;-75
2023/11/29 08:51:36;;;;;;;32.17;29.33;;;;;;;;;;5024573;28;20232;-74
2023/11/29 08:54:05;;;;;;;22.27;20.43;;;;;;;;;;5012306;28;20227;-72
2023/11/29 08:56:33;;;;;;;21.10;19.20;;;;;;;;;;5009680;28;20701;-74
2023/11/29 08:59:01;;;;;;;19.13;17.43;;;;;;;;;;5041455;28;20243;-74
2023/11/29 09:01:34;;;;;;;20.97;18.93;;;;;;;;;;5018738;28;20226;-74
2023/11/29 09:04:02;;;;;;;19.20;17.50;;;;;;;;;;5011391;28;20228;-74
2023/11/29 09:06:30;;;;;;;20.93;18.93;;;;;;;;;;5018107;28;20266;-74
2023/11/29 09:08:55;;;;;;;19.50;17.80;;;;;;;;;;5014497;28;20317;-76
2023/11/29 09:11:23;;;;;;;17.80;16.30;;;;;;;;;;5008641;28;20231;-77
2023/11/29 09:13:50;;;;;;;18.90;17.20;;;;;;;;;;4997471;28;20224;-74
2023/11/29 09:16:16;;;;;;;16.27;14.97;;;;;;;;;;5012539;28;20227;-73
2023/11/29 09:18:43;;;;;;;17.43;15.90;;;;;;;;;;5031624;28;20212;-74
2023/11/29 09:21:11;;;;;;;15.43;14.13;;;;;;;;;;4997210;28;20223;-72
2023/11/29 09:23:39;;;;;;;15.70;14.20;;;;;;;;;;4989365;28;20725;-72
2023/11/29 09:26:05;;;;;;;15.33;14.13;;;;;;;;;;5005160;28;20227;-73
2023/11/29 09:28:33;;;;;;;15.30;13.90;;;;;;;;;;5007056;28;20610;-73
2023/11/29 09:31:03;;;;;;;14.33;13.23;;;;;;;;;;5029308;28;20509;-74
2023/11/29 09:33:29;;;;;;;13.17;12.07;;;;;;;;;;5013891;28;20236;-76
2023/11/29 09:35:57;;;;;;;13.07;12.07;;;;;;;;;;5030356;28;20204;-74
2023/11/29 09:38:27;;;;;;;11.97;11.07;;;;;;;;;;4993721;28;20639;-74
2023/11/29 09:40:53;;;;;;;12.43;11.43;;;;;;;;;;4995263;28;20231;-75
2023/11/29 09:43:18;;;;;;;12.60;11.50;;;;;;;;;;4994289;28;20212;-74
2023/11/29 09:45:44;;;;;;;12.27;11.17;;;;;;;;;;5033031;28;20200;-75
2023/11/29 09:48:14;;;;;;;12.83;11.63;;;;;;;;;;5012618;28;20231;-75
2023/11/29 09:50:40;;;;;;;11.80;10.90;;;;;;;;;;5007891;28;20236;-75
2023/11/29 09:53:06;;;;;;;12.37;11.27;;;;;;;;;;4996122;28;20212;-75
2023/11/29 09:55:33;;;;;;;12.37;11.37;;;;;;;;;;5012184;28;20258;-74
2023/11/29 09:57:59;;;;;;;14.27;12.97;;;;;;;;;;5007541;28;20270;-75
2023/11/29 10:00:25;;;;;;;12.97;11.97;;;;;;;;;;4991468;28;20220;-75
2023/11/29 10:02:53;;;;;;;14.30;13.00;;;;;;;;;;5012051;28;20598;-75
2023/11/29 10:05:21;;;;;;;14.03;12.83;;;;;;;;;;4982647;28;20217;-75
2023/11/29 10:07:46;;;;;;;12.73;11.60;;;;;;;;;;5013008;28;20219;-75
2023/11/29 10:10:15;;;;;;;14.13;13.00;;;;;;;;;;5017771;28;20219;-75
2023/11/29 10:12:45;;;;;;;12.80;11.63;;;;;;;;;;4995994;28;20312;-75
2023/11/29 10:15:11;;;;;;;14.10;12.80;;;;;;;;;;5036069;28;20227;-74
2023/11/29 10:17:39;;;;;;;13.73;12.57;;;;;;;;;;5020992;28;20250;-75
2023/11/29 10:20:06;;;;;;;14.70;13.37;;;;;;;;;;5013218;28;20310;-75
2023/11/29 10:22:34;;;;;;;15.27;13.97;;;;;;;;;;5011271;28;20232;-74
2023/11/29 10:25:17;;;;;;;14.70;13.50;;;;;;;;;;5021543;28;20219;-75
2023/11/29 10:27:43;;;;;;;15.70;14.30;;;;;;;;;;5030722;28;20306;-74
2023/11/29 10:30:12;;;;;;;16.90;15.33;;;;;;;;;;5025325;28;20219;-75
2023/11/29 10:32:41;;;;;;;17.60;16.07;;;;;;;;;;5030854;28;20238;-74
2023/11/29 10:35:07;;;;;;;46.23;41.27;;;;;;;;;;4991976;28;20208;-74
2023/11/29 10:37:37;;;;;;;20.50;18.70;;;;;;;;;;4997118;28;20229;-74
2023/11/29 10:40:03;;;;;;;15.80;14.53;;;;;;;;;;5010755;28;20767;-74
2023/11/29 10:42:31;;;;;;;15.47;14.20;;;;;;;;;;5011036;28;20616;-74
2023/11/29 10:44:56;;;;;;;15.37;14.07;;;;;;;;;;5016660;28;20224;-74
2023/11/29 10:47:37;;;;;;;16.20;14.93;;;;;;;;;;4993684;28;20219;-74
2023/11/29 10:50:07;;;;;;;15.73;14.40;;;;;;;;;;5015882;28;20215;-75
2023/11/29 10:52:35;;;;;;;16.27;14.67;;;;;;;;;;5010820;28;20219;-74
2023/11/29 10:55:02;;;;;;;16.13;14.87;;;;;;;;;;5015317;28;20208;-74
2023/11/29 10:58:02;;;;;;;17.43;15.90;;;;;;;;;;4996769;28;20705;-74
2023/11/29 11:00:28;;;;;;;14.93;13.63;;;;;;;;;;5005501;28;20302;-74
2023/11/29 11:02:54;;;;;;;19.07;17.47;;;;;;;;;;4993255;28;20255;-74
2023/11/29 11:05:23;;;;;;;19.10;17.33;;;;;;;;;;5011231;28;20254;-75
2023/11/29 11:07:52;;;;;;;25.57;22.90;;;;;;;;;;5016656;28;20762;-75
2023/11/29 11:10:27;;;;;;;21.83;19.67;;;;;;;;;;5013593;28;20242;-74
2023/11/29 11:12:53;;;;;;;20.57;18.73;;;;;;;;;;4999834;28;20230;-74
2023/11/29 11:15:24;;;;;;;19.17;17.67;;;;;;;;;;4994907;28;20624;-75
2023/11/29 11:18:02;;;;;;;17.83;16.33;;;;;;;;;;5035203;28;20227;-75
2023/11/29 11:20:42;;;;;;;17.90;16.13;;;;;;;;;;5036889;28;20238;-75
2023/11/29 11:23:08;;;;;;;17.13;15.63;;;;;;;;;;5016901;28;20227;-75
2023/11/29 11:25:35;;;;;;;17.30;15.43;;;;;;;;;;5012080;28;20577;-74
2023/11/29 11:28:00;;;;;;;17.57;16.10;;;;;;;;;;5028570;28;20615;-75
2023/11/29 11:30:26;;;;;;;18.43;16.90;;;;;;;;;;4998818;28;20314;-75
2023/11/29 11:32:58;;;;;;;20.70;18.60;;;;;;;;;;5019858;28;20253;-76
2023/11/29 11:35:32;;;;;;;18.07;16.37;;;;;;;;;;4996321;28;20216;-75
2023/11/29 11:38:00;;;;;;;17.00;15.67;;;;;;;;;;5016836;28;20286;-75
2023/11/29 11:40:27;;;;;;;20.03;18.33;;;;;;;;;;5030738;28;20209;-75
2023/11/29 11:42:52;;;;;;;19.43;17.63;;;;;;;;;;5018174;28;20216;-76
2023/11/29 11:45:18;;;;;;;21.70;19.77;;;;;;;;;;5002055;28;20218;-75
2023/11/29 11:47:46;;;;;;;31.50;28.23;;;;;;;;;;5015584;28;20223;-75
2023/11/29 11:50:16;;;;;;;31.80;28.27;;;;;;;;;;5016782;28;20250;-75
2023/11/29 11:52:42;;;;;;;21.40;19.30;;;;;;;;;;5047825;28;20224;-76
2023/11/29 11:55:09;;;;;;;19.03;17.33;;;;;;;;;;5048069;28;20262;-75
2023/11/29 11:57:35;;;;;;;18.67;17.07;;;;;;;;;;5026215;28;20543;-75
2023/11/29 12:00:06;;;;;;;19.07;17.40;;;;;;;;;;5029554;28;20223;-75
2023/11/29 12:02:33;;;;;;;20.63;18.83;;;;;;;;;;5047689;28;20310;-75
2023/11/29 12:04:58;;;;;;;22.50;20.57;;;;;;;;;;5013021;28;20272;-75
2023/11/29 12:07:24;;;;;;;21.57;19.60;;;;;;;;;;4999999;28;20219;-75
2023/11/29 12:09:51;;;;;;;23.23;20.97;;;;;;;;;;5019236;28;20215;-77
2023/11/29 12:12:17;;;;;;;23.93;21.60;;;;;;;;;;5025159;28;20263;-77
2023/11/29 12:14:47;;;;;;;21.50;19.53;;;;;;;;;;5014426;28;20297;-76
2023/11/29 12:17:13;;;;;;;20.83;18.80;;;;;;;;;;5014860;28;20216;-78
2023/11/29 12:19:42;;;;;;;20.17;18.33;;;;;;;;;;5014495;28;20223;-76
2023/11/29 12:22:14;;;;;;;18.50;17.00;;;;;;;;;;5028420;28;20237;-76
2023/11/29 12:24:39;;;;;;;19.27;17.53;;;;;;;;;;5001929;28;20214;-76
2023/11/29 12:27:07;;;;;;;19.83;18.13;;;;;;;;;;5043725;28;20220;-76
2023/11/29 12:29:36;;;;;;;22.37;20.33;;;;;;;;;;5029684;28;20262;-76
2023/11/29 12:32:06;;;;;;;20.20;18.43;;;;;;;;;;5036875;28;20213;-77
2023/11/29 12:34:35;;;;;;;19.07;17.50;;;;;;;;;;5032004;28;20219;-76
2023/11/29 12:37:03;;;;;;;18.57;16.93;;;;;;;;;;5016256;28;20210;-76
2023/11/29 12:39:35;;;;;;;17.97;16.50;;;;;;;;;;5003897;28;20228;-76
2023/11/29 12:42:03;;;;;;;18.73;17.20;;;;;;;;;;5036583;28;20228;-76
2023/11/29 12:44:32;;;;;;;18.83;17.13;;;;;;;;;;5025740;28;20220;-76
2023/11/29 12:46:59;;;;;;;19.47;17.67;;;;;;;;;;5006111;28;20665;-76
2023/11/29 12:49:28;;;;;;;19.13;17.63;;;;;;;;;;5023439;28;20225;-76
2023/11/29 12:51:53;;;;;;;18.70;17.07;;;;;;;;;;5023089;28;20224;-77
2023/11/29 12:54:20;;;;;;;17.07;15.67;;;;;;;;;;5009714;28;20224;-76
2023/11/29 12:56:47;;;;;;;17.73;16.13;;;;;;;;;;5032911;28;20228;-76
2023/11/29 12:59:13;;;;;;;18.60;16.90;;;;;;;;;;5026852;28;20219;-77
2023/11/29 13:01:39;;;;;;;19.33;17.53;;;;;;;;;;5006654;28;20215;-77
2023/11/29 13:04:06;;;;;;;18.63;17.13;;;;;;;;;;5020492;28;20214;-76
2023/11/29 13:06:34;;;;;;;19.73;18.13;;;;;;;;;;5010555;28;20219;-76
2023/11/29 13:09:00;;;;;;;21.57;19.67;;;;;;;;;;5029745;28;20476;-76
2023/11/29 13:11:28;;;;;;;19.17;17.37;;;;;;;;;;5012871;28;20285;-76
2023/11/29 13:13:56;;;;;;;18.53;17.03;;;;;;;;;;5015855;28;20303;-76
2023/11/29 13:16:23;;;;;;;18.57;16.97;;;;;;;;;;4994796;28;20227;-76
2023/11/29 13:18:49;;;;;;;19.50;17.83;;;;;;;;;;5013128;28;20888;-76
2023/11/29 13:21:17;;;;;;;19.27;17.67;;;;;;;;;;4996768;28;20250;-75
2023/11/29 13:23:44;;;;;;;18.83;17.13;;;;;;;;;;5010325;28;20244;-76
2023/11/29 13:26:09;;;;;;;19.77;18.07;;;;;;;;;;4993615;28;20208;-76
2023/11/29 13:28:37;;;;;;;19.33;17.27;;;;;;;;;;4996970;28;20258;-76
2023/11/29 13:31:05;;;;;;;17.77;16.20;;;;;;;;;;5020786;28;20274;-76
2023/11/29 13:33:31;;;;;;;17.37;15.67;;;;;;;;;;5023957;28;20231;-75
2023/11/29 13:35:58;;;;;;;18.40;16.63;;;;;;;;;;5028572;28;20239;-76
2023/11/29 13:38:24;;;;;;;15.83;14.43;;;;;;;;;;5022230;28;20726;-75
2023/11/29 13:40:50;;;;;;;13.53;12.30;;;;;;;;;;5010715;28;20216;-75
2023/11/29 13:43:20;;;;;;;13.33;12.17;;;;;;;;;;4991808;28;20242;-74
2023/11/29 13:45:48;;;;;;;14.50;13.30;;;;;;;;;;5036669;28;20290;-74
2023/11/29 13:48:16;;;;;;;13.83;12.73;;;;;;;;;;5007001;28;20215;-75
2023/11/29 13:50:46;;;;;;;12.43;11.43;;;;;;;;;;5036669;28;20299;-73
2023/11/29 13:53:14;;;;;;;13.27;12.13;;;;;;;;;;5021415;28;20217;-73
2023/11/29 13:55:40;;;;;;;12.67;11.57;;;;;;;;;;5007268;28;20219;-75
2023/11/29 13:58:05;;;;;;;12.23;11.13;;;;;;;;;;5026141;28;20203;-76
2023/11/29 14:00:31;;;;;;;11.53;10.60;;;;;;;;;;5019334;28;20220;-75
2023/11/29 14:02:56;;;;;;;12.53;11.53;;;;;;;;;;5011666;28;20227;-75
2023/11/29 14:05:22;;;;;;;12.40;11.30;;;;;;;;;;5019225;28;20214;-75
2023/11/29 14:07:52;;;;;;;13.97;12.70;;;;;;;;;;4988275;28;20309;-75
2023/11/29 14:10:21;;;;;;;13.13;12.00;;;;;;;;;;5029474;28;20282;-74
2023/11/29 14:12:46;;;;;;;14.53;13.13;;;;;;;;;;5014525;28;20652;-75
2023/11/29 14:15:14;;;;;;;15.17;13.77;;;;;;;;;;5007147;28;20215;-74
2023/11/29 14:17:42;;;;;;;14.83;13.53;;;;;;;;;;5004769;28;20210;-75
2023/11/29 14:20:18;;;;;;;14.33;13.03;;;;;;;;;;5020546;28;20218;-75
2023/11/29 14:22:46;;;;;;;13.90;12.57;;;;;;;;;;5038076;28;20624;-75
2023/11/29 14:25:13;;;;;;;17.80;16.00;;;;;;;;;;5029563;28;20265;-75